• Join FlightAware (Why Join?)
  • Login
  • US Flag 
08:50PM EDT


 

Airport Tracker/Info


-or-


 

Live Flight TrackerFlight Track Log ✈ N146RF ✈ 28-Sep-2013 ✈ KLNA - KAPF

Flight Track Log - Related Links

Times and Time Zones

All times are in EDT time to prevent confusion due to time zone crossing. See the N146RF flight status page for this flight to view local times or setup timezone preferences in your user account.

Time Position Orientation Groundspeed Altitude Reporting Facility
EDT Latitude Longitude Course Direction KTS MPH feet Rate Location/Type
01:05PM 26.5028 -80.1556 252° West 149 171 2,100  Level Miami Center
01:06PM 26.4936 -80.1922 254° West 149 171 2,800 720 Climbing Miami Center
01:07PM 26.4886 -80.2294 261° West 144 166 3,600 600 Climbing Miami Center
01:08PM 26.4978 -80.2736 283° West 139 160 4,100 660 Climbing Miami Center
01:09PM 26.5183 -80.2975 314° West 130 150 5,000 900 Climbing Miami Center
01:10PM 26.4945 -80.4709 252° West  Level Estimated
01:10PM 26.5383 -80.3331 302° West 125 144 5,900  Level Miami Center
01:11PM 26.5458 -80.3656 284° West 125 144 6,600 660 Climbing Miami Center
01:12PM 26.5489 -80.4122 274° West 130 150 7,300 660 Climbing Miami Center
01:13PM 26.5542 -80.4494 279° West 143 165 8,000 720 Climbing Miami Center
01:14PM 26.5572 -80.4961 274° West 143 165 8,800 780 Climbing Miami Center
01:15PM 26.5606 -80.5308 276° West 138 159 9,600 780 Climbing Miami Center
01:16PM 26.5572 -80.5750 265° West 138 159 10,400 660 Climbing Miami Center
01:17PM 26.5378 -80.6069 236° Southwest 138 159 11,000 300 Climbing Miami Center
01:18PM 26.5094 -80.6522 235° Southwest 158 182 11,000  Level Miami Center
01:19PM 26.4811 -80.6956 234° Southwest 187 215 11,000 -240 Level Miami Center
01:20PM 26.4442 -80.7522 234° Southwest 194 223 10,600 -420 Descending Miami Center
01:21PM 26.4158 -80.7978 235° Southwest 200 230 10,200 -420 Descending Miami Center
01:22PM 26.3828 -80.8547 237° Southwest 205 236 9,800 -420 Descending Miami Center
01:23PM 26.3544 -80.9025 237° Southwest 205 236 9,400 -420 Descending Miami Center
01:24PM 26.3339 -80.9667 250° West 200 230 9,000 -420 Descending Miami Center
01:25PM 26.3219 -81.0217 256° West 200 230 8,600 -540 Descending Miami Center
01:26PM 26.3094 -81.0886 258° West 200 230 8,000 -600 Descending Miami Center
01:27PM 26.2975 -81.1392 255° West 200 230 7,500 -540 Descending Miami Center
01:28PM 26.2856 -81.1964 257° West 200 230 7,000 -540 Descending Miami Center
01:29PM 26.2711 -81.2561 255° West 200 230 6,500 -540 Descending Miami Center
01:30PM 26.2589 -81.3161 257° West 200 230 6,000 -540 Descending Miami Center
01:31PM 26.2444 -81.3733 254° West 200 230 5,500 -540 Descending Miami Center
01:32PM 26.2325 -81.4283 256° West 200 230 5,000 -600 Descending Miami Center
01:33PM 26.2161 -81.4811 251° West 194 223 4,400 -540 Descending Miami Center
01:34PM 26.1875 -81.5308 237° Southwest 189 217 4,000 -300 Descending Miami Center
01:35PM 26.1586 -81.5806 237° Southwest 189 217 3,800 -240 Descending Miami Center
01:37PM 26.1560 -81.6369 267° West  Level FlightAware Approximate
01:44PM 26.1500 -81.7667 257° West  Level FlightAware Approximate
01:45PM 26.1524 -81.7756 257° West  Level Estimated
01:46PM 26.1524 -81.7756 257° West  Level Estimated
01:47PM 26.1524 -81.7756 257° West  Level Estimated
01:48PM 26.1524 -81.7756 257° West  Level Estimated
01:49PM 26.1524 -81.7756 257° West  Level Estimated
01:50PM 26.1524 -81.7756 257° West  Level Estimated
01:51PM 26.1524 -81.7756 257° West  Level Estimated